Time;durP1;ratioP1;P1;durP2;ratioP2;P2;SDS_P1;SDS_P2;PMS_P1;PMS_P2;Temp;Humidity;BMP_temperature;BMP_pressure;BME280_temperature;BME280_humidity;BME280_pressure;Samples;Min_cycle;Max_cycle;Signal;HPM_P1;HPM_P2
2022/04/26 03:38:23;;;;;;;;;;;11.90;99.90;;;;;;4361350;32;46182;-83
2022/04/26 03:40:51;;;;;;;;;;;11.90;99.90;;;;;;4361161;32;43473;-83
2022/04/26 03:43:18;;;;;;;;;;;11.90;99.80;;;;;;4360785;32;42368;-83
2022/04/26 03:45:45;;;;;;;;;;;11.80;99.70;;;;;;4347381;32;43240;-83
2022/04/26 03:48:12;;;;;;;;;;;11.90;99.60;;;;;;4360760;32;41988;-82
2022/04/26 03:50:39;;;;;;;;;;;11.80;99.70;;;;;;4361062;32;43374;-83
2022/04/26 03:53:06;;;;;;;;;;;11.80;99.90;;;;;;4347401;32;43045;-83
2022/04/26 03:55:34;;;;;;;;;;;11.80;99.80;;;;;;4347309;32;42758;-83
2022/04/26 03:58:01;;;;;;;;;;;11.80;99.60;;;;;;4360617;32;44215;-82
2022/04/26 04:00:28;;;;;;;;;;;11.90;99.90;;;;;;4347531;32;42473;-83
2022/04/26 04:02:56;;;;;;;;;;;11.80;99.80;;;;;;4347766;32;20174;-83
2022/04/26 04:05:23;;;;;;;;;;;11.80;99.90;;;;;;4347094;32;42994;-83
2022/04/26 04:07:50;;;;;;;;;;;11.80;99.90;;;;;;4347163;32;44100;-83
2022/04/26 04:10:17;;;;;;;;;;;11.80;99.90;;;;;;4360683;32;43071;-82
2022/04/26 04:12:44;;;;;;;;;;;11.80;99.90;;;;;;4347126;32;43539;-82
2022/04/26 04:15:11;;;;;;;;;;;11.80;99.80;;;;;;4360774;32;45867;-83
2022/04/26 04:17:38;;;;;;;;;;;11.80;99.90;;;;;;4347349;32;45762;-83
2022/04/26 04:20:06;;;;;;;;;;;11.80;99.90;;;;;;4347440;32;44855;-83
2022/04/26 04:22:38;;;;;;;;;;;11.80;99.90;;;;;;4347973;32;44705;-83
2022/04/26 04:25:05;;;;;;;;;;;11.80;99.90;;;;;;4360254;32;44228;-83
2022/04/26 04:27:32;;;;;;;;;;;11.80;99.90;;;;;;4347406;32;42180;-82
2022/04/26 04:30:02;;;;;;;;;;;11.80;99.90;;;;;;4360647;32;44323;-82
2022/04/26 04:32:29;;;;;;;;;;;11.80;99.90;;;;;;4346558;32;45109;-82
2022/04/26 04:34:59;;;;;;;;;;;11.80;99.90;;;;;;4348218;32;20009;-82
2022/04/26 04:37:26;;;;;;;;;;;11.80;99.90;;;;;;4347028;32;43454;-81
2022/04/26 04:39:53;;;;;;;;;;;11.80;99.90;;;;;;4360072;32;43748;-82
2022/04/26 04:42:21;;;;;;;;;;;11.80;99.90;;;;;;4360395;32;43098;-82
2022/04/26 04:44:48;;;;;;;;;;;11.80;99.90;;;;;;4347009;32;43768;-82
2022/04/26 04:47:15;;;;;;;;;;;11.80;99.90;;;;;;4346494;32;44567;-82
2022/04/26 04:49:42;;;;;;;;;;;11.80;99.90;;;;;;4360135;32;42579;-82
2022/04/26 04:52:09;;;;;;;;;;;11.80;99.90;;;;;;4346639;32;42862;-81
2022/04/26 04:54:36;;;;;;;;;;;11.80;99.90;;;;;;4360249;32;43486;-82
2022/04/26 04:57:04;;;;;;;;;;;11.80;99.90;;;;;;4360363;32;43358;-82
2022/04/26 04:59:31;;;;;;;;;;;11.70;99.90;;;;;;4346381;32;43058;-82
2022/04/26 05:01:59;;;;;;;;;;;11.70;99.90;;;;;;4359774;32;43648;-82
2022/04/26 05:04:26;;;;;;;;;;;11.70;99.90;;;;;;4346561;32;44327;-82
2022/04/26 05:06:53;;;;;;;;;;;11.70;99.90;;;;;;4359930;32;44082;-82
2022/04/26 05:09:20;;;;;;;;;;;11.70;99.90;;;;;;4359692;32;42975;-82
2022/04/26 05:11:47;;;;;;;;;;;11.70;99.90;;;;;;4359547;32;44365;-82
2022/04/26 05:14:14;;;;;;;;;;;11.60;99.90;;;;;;4359774;32;43329;-82
2022/04/26 05:16:41;;;;;;;;;;;11.70;99.90;;;;;;4346465;32;42904;-82
2022/04/26 05:19:08;;;;;;;;;;;11.70;99.90;;;;;;4359911;32;44234;-81
2022/04/26 05:21:35;;;;;;;;;;;11.60;99.90;;;;;;4346704;33;43514;-81
2022/04/26 05:26:48;;;;;;;;;;;11.60;99.90;;;;;;4359905;33;44686;-82
2022/04/26 05:29:15;;;;;;;;;;;11.60;99.90;;;;;;4346212;33;43775;-82
2022/04/26 05:31:42;;;;;;;;;;;11.60;99.80;;;;;;4346136;33;43197;-82
2022/04/26 05:34:09;;;;;;;;;;;11.60;99.80;;;;;;4359498;33;43501;-82
2022/04/26 05:36:36;;;;;;;;;;;11.60;99.80;;;;;;4346151;33;44183;-82
2022/04/26 05:39:03;;;;;;;;;;;11.60;99.80;;;;;;4359882;33;43269;-83
2022/04/26 05:41:30;;;;;;;;;;;11.60;99.70;;;;;;4359962;33;43966;-82
2022/04/26 05:43:58;;;;;;;;;;;11.60;99.80;;;;;;4346534;33;45920;-82
2022/04/26 05:46:25;;;;;;;;;;;11.60;99.80;;;;;;4359421;33;44190;-82
2022/04/26 05:48:52;;;;;;;;;;;11.50;99.90;;;;;;4359709;33;43772;-82
2022/04/26 05:51:19;;;;;;;;;;;11.50;99.70;;;;;;4359758;33;44591;-82
2022/04/26 05:53:46;;;;;;;;;;;11.50;99.70;;;;;;4359374;33;44076;-82
2022/04/26 05:56:15;;;;;;;;;;;11.50;99.70;;;;;;4359314;33;42571;-82
2022/04/26 05:58:42;;;;;;;;;;;11.50;99.70;;;;;;4346453;33;46264;-82
2022/04/26 06:01:10;;;;;;;;;;;11.40;99.30;;;;;;4345909;33;43026;-82
2022/04/26 06:03:37;;;;;;;;;;;11.40;99.40;;;;;;4346309;33;44189;-83
2022/04/26 06:06:04;;;;;;;;;;;11.40;99.20;;;;;;4359331;33;42463;-82
2022/04/26 06:08:31;;;;;;;;;;;11.40;99.30;;;;;;4345945;33;43026;-82
2022/04/26 06:10:58;;;;;;;;;;;11.40;99.30;;;;;;4359357;33;44119;-82
2022/04/26 06:13:25;;;;;;;;;;;11.40;99.40;;;;;;4346429;33;44397;-82
2022/04/26 06:15:52;;;;;;;;;;;11.40;99.30;;;;;;4346203;33;44125;-82
2022/04/26 06:18:21;;;;;;;;;;;11.40;99.20;;;;;;4359409;33;44412;-83
2022/04/26 06:20:48;;;;;;;;;;;11.40;99.20;;;;;;4345834;33;44186;-82
2022/04/26 06:23:15;;;;;;;;;;;11.30;99.10;;;;;;4348254;32;44023;-82
2022/04/26 06:25:42;;;;;;;;;;;11.30;99.10;;;;;;4348754;32;43468;-83
2022/04/26 06:28:09;;;;;;;;;;;11.30;99.10;;;;;;4348632;32;42799;-83
2022/04/26 06:30:38;;;;;;;;;;;11.30;98.90;;;;;;4349032;32;43278;-83
2022/04/26 06:33:05;;;;;;;;;;;11.30;98.90;;;;;;4348548;32;42851;-81
2022/04/26 06:35:35;;;;;;;;;;;11.30;98.90;;;;;;4349248;32;43797;-82
2022/04/26 06:38:02;;;;;;;;;;;11.30;98.90;;;;;;4348728;32;45505;-82
2022/04/26 06:40:30;;;;;;;;;;;11.20;99.00;;;;;;4361679;32;43400;-82
2022/04/26 06:42:58;;;;;;;;;;;11.20;99.00;;;;;;4348989;32;44203;-82
2022/04/26 06:45:25;;;;;;;;;;;11.20;99.00;;;;;;4361716;32;43358;-82
2022/04/26 06:47:54;;;;;;;;;;;11.20;98.90;;;;;;4348356;32;44034;-82
2022/04/26 06:50:23;;;;;;;;;;;11.20;98.90;;;;;;4361454;32;44170;-82
2022/04/26 06:52:50;;;;;;;;;;;11.20;99.10;;;;;;4348302;32;43570;-83
2022/04/26 06:55:17;;;;;;;;;;;11.20;99.00;;;;;;4348430;32;42533;-82
2022/04/26 06:57:46;;;;;;;;;;;11.20;99.20;;;;;;4348114;32;43765;-82
2022/04/26 07:00:14;;;;;;;;;;;11.20;99.30;;;;;;4348149;32;42950;-83
2022/04/26 07:02:41;;;;;;;;;;;11.20;99.10;;;;;;4348182;32;46009;-82
2022/04/26 07:05:08;;;;;;;;;;;11.20;99.20;;;;;;4348472;32;44905;-83
2022/04/26 07:07:36;;;;;;;;;;;11.30;99.20;;;;;;4361846;32;45671;-82
2022/04/26 07:10:04;;;;;;;;;;;11.20;99.00;;;;;;4348138;32;42455;-82
2022/04/26 07:12:31;;;;;;;;;;;11.30;99.00;;;;;;4348363;32;44179;-82
2022/04/26 07:14:58;;;;;;;;;;;11.30;99.30;;;;;;4361761;32;44142;-82
2022/04/26 07:17:25;;;;;;;;;;;11.30;99.70;;;;;;4361745;32;44129;-84
2022/04/26 07:19:53;;;;;;;;;;;11.30;99.30;;;;;;4348164;32;43269;-82
2022/04/26 07:22:27;;;;;;;;;;;11.30;99.40;;;;;;4348828;32;42776;-82
2022/04/26 07:24:54;;;;;;;;;;;11.30;99.30;;;;;;4347738;32;43085;-82
2022/04/26 07:27:22;;;;;;;;;;;11.30;99.10;;;;;;4347937;32;43804;-82
2022/04/26 07:29:50;;;;;;;;;;;11.30;98.80;;;;;;4348062;32;42730;-82
2022/04/26 07:32:17;;;;;;;;;;;11.30;99.00;;;;;;4347970;32;43705;-83
2022/04/26 07:34:47;;;;;;;;;;;11.30;99.20;;;;;;4346894;32;46135;-83
2022/04/26 07:37:14;;;;;;;;;;;11.30;99.00;;;;;;4348073;32;44695;-84
2022/04/26 07:39:42;;;;;;;;;;;11.30;99.10;;;;;;4347733;32;46100;-84
2022/04/26 07:42:10;;;;;;;;;;;11.30;99.20;;;;;;4347519;32;43764;-83
2022/04/26 07:44:39;;;;;;;;;;;11.30;99.00;;;;;;4347469;32;43449;-83
2022/04/26 07:47:07;;;;;;;;;;;11.30;99.00;;;;;;4360981;32;43918;-83
2022/04/26 07:49:35;;;;;;;;;;;11.40;98.90;;;;;;4347815;32;45015;-83
2022/04/26 07:52:03;;;;;;;;;;;11.30;99.00;;;;;;4361159;32;45700;-83
2022/04/26 07:54:30;;;;;;;;;;;11.30;98.90;;;;;;4347638;32;44283;-83
2022/04/26 07:56:57;;;;;;;;;;;11.40;99.10;;;;;;4347647;32;42663;-83
2022/04/26 07:59:25;;;;;;;;;;;11.40;99.00;;;;;;4347156;32;46226;-84
2022/04/26 08:01:52;;;;;;;;;;;11.30;98.90;;;;;;4346929;32;44281;-84
2022/04/26 08:04:20;;;;;;;;;;;11.40;99.40;;;;;;4347156;32;44538;-83
2022/04/26 08:06:47;;;;;;;;;;;11.40;99.30;;;;;;4347752;32;46354;-85
2022/04/26 08:09:14;;;;;;;;;;;11.40;99.40;;;;;;4347386;32;46083;-83
2022/04/26 08:11:41;;;;;;;;;;;11.40;99.50;;;;;;4347480;32;44142;-82
2022/04/26 08:14:08;;;;;;;;;;;11.40;99.40;;;;;;4346959;32;44146;-83
2022/04/26 08:16:35;;;;;;;;;;;11.40;99.40;;;;;;4346947;32;43263;-83
2022/04/26 08:19:02;;;;;;;;;;;11.40;99.60;;;;;;4346917;32;42935;-83
2022/04/26 08:21:35;;;;;;;;;;;11.40;99.60;;;;;;4360596;32;44026;-83
2022/04/26 08:29:34;;;;;;;;;;;11.40;99.30;;;;;;4360654;32;43005;-82
2022/04/26 08:32:02;;;;;;;;;;;11.40;99.20;;;;;;4347379;32;44299;-83
2022/04/26 08:34:29;;;;;;;;;;;11.40;99.30;;;;;;4347231;32;44136;-82
2022/04/26 08:36:57;;;;;;;;;;;11.40;99.40;;;;;;4347649;32;20377;-83
2022/04/26 08:39:24;;;;;;;;;;;11.40;99.40;;;;;;4346856;32;42869;-82
2022/04/26 08:41:56;;;;;;;;;;;11.40;99.40;;;;;;4346630;32;42824;-82
2022/04/26 08:44:25;;;;;;;;;;;11.40;99.50;;;;;;4359988;32;44155;-82
2022/04/26 08:52:25;;;;;;;;;;;11.40;99.60;;;;;;4360193;32;44302;-82
2022/04/26 08:54:52;;;;;;;;;;;11.40;99.40;;;;;;4360161;32;42611;-82
2022/04/26 08:57:19;;;;;;;;;;;11.40;99.60;;;;;;4360302;32;43498;-82
2022/04/26 08:59:47;;;;;;;;;;;11.40;99.70;;;;;;4360284;32;43963;-82
2022/04/26 09:02:15;;;;;;;;;;;11.40;99.60;;;;;;4360011;32;43474;-82
2022/04/26 09:04:43;;;;;;;;;;;11.40;99.70;;;;;;4346460;32;43920;-82
2022/04/26 09:07:11;;;;;;;;;;;11.40;99.50;;;;;;4360995;32;19997;-82
2022/04/26 09:09:40;;;;;;;;;;;11.40;99.50;;;;;;4346390;32;43809;-82
2022/04/26 09:12:11;;;;;;;;;;;11.40;99.60;;;;;;4346692;32;44661;-82
2022/04/26 09:14:47;;;;;;;;;;;11.40;99.70;;;;;;4346335;32;44196;-82
2022/04/26 09:17:17;;;;;;;;;;;11.40;99.70;;;;;;4346625;32;44095;-82
2022/04/26 09:19:44;;;;;;;;;;;11.40;99.60;;;;;;4346490;32;43290;-82
2022/04/26 09:22:15;;;;;;;;;;;11.40;99.60;;;;;;4359733;32;44538;-82
2022/04/26 09:24:55;;;;;;;;;;;11.40;99.70;;;;;;4346817;33;43865;-80
2022/04/26 09:27:23;;;;;;;;;;;11.40;99.90;;;;;;4346710;33;43922;-81
2022/04/26 09:29:50;;;;;;;;;;;11.40;99.90;;;;;;4346223;33;41370;-81
2022/04/26 09:32:18;;;;;;;;;;;11.40;99.90;;;;;;4359661;33;42515;-81
2022/04/26 09:34:46;;;;;;;;;;;11.40;99.90;;;;;;4346466;33;42634;-81
2022/04/26 09:37:13;;;;;;;;;;;11.40;99.90;;;;;;4360235;33;20009;-81
2022/04/26 09:39:58;;;;;;;;;;;11.40;99.90;;;;;;4359802;33;44162;-81
2022/04/26 09:42:29;;;;;;;;;;;11.40;99.80;;;;;;4347015;33;43297;-81
2022/04/26 09:45:04;;;;;;;;;;;11.40;99.90;;;;;;4346799;33;43411;-81
2022/04/26 09:47:38;;;;;;;;;;;11.40;99.80;;;;;;4359611;33;44137;-81
2022/04/26 09:50:15;;;;;;;;;;;11.40;99.90;;;;;;4359790;33;44103;-81
2022/04/26 09:52:42;;;;;;;;;;;11.40;99.80;;;;;;4359965;33;43882;-81
2022/04/26 09:55:10;;;;;;;;;;;11.40;99.80;;;;;;4346197;33;42940;-81
2022/04/26 09:57:37;;;;;;;;;;;11.40;99.80;;;;;;4347996;32;43176;-80
2022/04/26 10:00:10;;;;;;;;;;;11.40;99.90;;;;;;4349319;32;43922;-80
2022/04/26 10:02:41;;;;;;;;;;;11.40;99.90;;;;;;4348749;32;43412;-81
2022/04/26 10:05:08;;;;;;;;;;;11.40;99.90;;;;;;4362382;32;43262;-81
2022/04/26 10:07:36;;;;;;;;;;;11.40;99.90;;;;;;4349814;32;20070;-80
2022/04/26 10:10:04;;;;;;;;;;;11.40;99.90;;;;;;4349377;32;43959;-81
2022/04/26 10:12:32;;;;;;;;;;;11.40;99.90;;;;;;4349372;32;43858;-80
2022/04/26 10:14:59;;;;;;;;;;;11.40;99.90;;;;;;4348847;32;43920;-80
2022/04/26 10:17:30;;;;;;;;;;;11.40;99.90;;;;;;4349250;32;32947;-81
2022/04/26 10:19:57;;;;;;;;;;;11.40;99.90;;;;;;4349158;32;44594;-80
2022/04/26 10:22:43;;;;;;;;;;;11.40;99.90;;;;;;4362332;32;43605;-80
2022/04/26 10:25:12;;;;;;;;;;;11.40;99.90;;;;;;4362392;32;43482;-80
2022/04/26 10:27:40;;;;;;;;;;;11.40;99.90;;;;;;4361843;32;43984;-80
2022/04/26 10:30:07;;;;;;;;;;;11.40;99.90;;;;;;4362526;32;43238;-81
2022/04/26 10:32:38;;;;;;;;;;;11.40;99.80;;;;;;4361752;32;45880;-80
2022/04/26 10:35:32;;;;;;;;;;;11.40;99.80;;;;;;4348705;32;43474;-80
2022/04/26 10:38:09;;;;;;;;;;;11.40;99.90;;;;;;4345743;32;43222;-80
2022/04/26 10:40:56;;;;;;;;;;;11.40;99.80;;;;;;4348817;32;45631;-80
2022/04/26 10:43:23;;;;;;;;;;;11.40;99.80;;;;;;4348838;32;43296;-79
2022/04/26 10:46:22;;;;;;;;;;;11.40;99.80;;;;;;4362104;32;42366;-80
2022/04/26 10:48:49;;;;;;;;;;;11.40;99.60;;;;;;4320825;32;44649;-80
2022/04/26 10:51:35;;;;;;;;;;;11.50;99.70;;;;;;4361967;32;44489;-80
2022/04/26 10:54:03;;;;;;;;;;;11.50;99.80;;;;;;4361548;32;44261;-80
2022/04/26 10:56:31;;;;;;;;;;;11.50;99.50;;;;;;4361893;32;41474;-80
2022/04/26 10:58:58;;;;;;;;;;;11.50;99.70;;;;;;4348582;32;45700;-80
2022/04/26 11:01:27;;;;;;;;;;;11.50;99.40;;;;;;4361170;32;45787;-81
2022/04/26 11:03:56;;;;;;;;;;;11.50;99.40;;;;;;4333314;33;45534;-80
2022/04/26 11:06:37;;;;;;;;;;;11.50;99.50;;;;;;4346933;33;44684;-80
2022/04/26 11:09:11;;;;;;;;;;;11.50;99.30;;;;;;4332652;33;43324;-80
2022/04/26 11:11:51;;;;;;;;;;;11.60;99.40;;;;;;4333424;33;44247;-80
2022/04/26 11:14:22;;;;;;;;;;;11.50;99.30;;;;;;4346832;33;43256;-80
2022/04/26 11:16:59;;;;;;;;;;;11.60;99.40;;;;;;4346390;33;44364;-80
2022/04/26 11:19:49;;;;;;;;;;;11.60;99.40;;;;;;4346830;33;43039;-80
2022/04/26 11:22:18;;;;;;;;;;;11.60;99.30;;;;;;4323986;33;44190;-80
2022/04/26 11:30:35;;;;;;;;;;;11.60;99.20;;;;;;4346695;33;44967;-80
2022/04/26 11:33:06;;;;;;;;;;;11.60;99.20;;;;;;4346725;33;46267;-80
2022/04/26 11:35:34;;;;;;;;;;;11.70;99.30;;;;;;4333457;33;44779;-80
2022/04/26 11:38:03;;;;;;;;;;;11.70;99.10;;;;;;4333196;33;43269;-80
2022/04/26 11:40:36;;;;;;;;;;;11.70;99.20;;;;;;4346201;33;42771;-80
2022/04/26 11:43:10;;;;;;;;;;;11.70;99.30;;;;;;4332732;33;42734;-80
2022/04/26 11:45:38;;;;;;;;;;;11.70;99.30;;;;;;4346021;33;44107;-80
2022/04/26 11:48:09;;;;;;;;;;;11.70;99.20;;;;;;4332660;33;43776;-80
2022/04/26 11:50:38;;;;;;;;;;;11.70;99.10;;;;;;4346211;33;43289;-80
2022/04/26 11:53:06;;;;;;;;;;;11.70;99.00;;;;;;4333153;33;43897;-80
2022/04/26 11:55:33;;;;;;;;;;;11.70;99.10;;;;;;4333005;33;42646;-80
2022/04/26 11:58:11;;;;;;;;;;;11.70;99.00;;;;;;4345886;33;43616;-80
2022/04/26 12:00:50;;;;;;;;;;;11.80;99.10;;;;;;4345890;33;44842;-80
2022/04/26 12:03:18;;;;;;;;;;;11.70;99.10;;;;;;4332433;33;43484;-80
2022/04/26 12:05:52;;;;;;;;;;;11.80;98.90;;;;;;4345762;33;42547;-80
2022/04/26 12:08:19;;;;;;;;;;;11.70;99.00;;;;;;4333067;33;43868;-80
2022/04/26 12:10:48;;;;;;;;;;;11.80;99.00;;;;;;4346593;33;20001;-80
2022/04/26 12:13:28;;;;;;;;;;;11.80;99.00;;;;;;4332363;33;43435;-80
2022/04/26 12:15:57;;;;;;;;;;;11.80;99.00;;;;;;4332938;33;43716;-80
2022/04/26 12:18:25;;;;;;;;;;;11.80;98.90;;;;;;4345868;33;44324;-80
2022/04/26 12:20:56;;;;;;;;;;;11.80;98.80;;;;;;4332464;33;43508;-80
2022/04/26 12:23:24;;;;;;;;;;;11.80;99.00;;;;;;4345515;33;43901;-80
2022/04/26 12:26:02;;;;;;;;;;;11.80;98.90;;;;;;4332390;33;42640;-80
2022/04/26 12:28:29;;;;;;;;;;;11.80;98.90;;;;;;4332859;33;43485;-80
2022/04/26 12:30:57;;;;;;;;;;;11.90;98.90;;;;;;4332659;33;43249;-79
2022/04/26 12:33:25;;;;;;;;;;;11.80;98.80;;;;;;4332187;33;43813;-79
2022/04/26 12:36:03;;;;;;;;;;;11.90;98.90;;;;;;4332443;33;45586;-80
2022/04/26 12:38:43;;;;;;;;;;;11.90;98.90;;;;;;4345729;33;45020;-79
2022/04/26 12:41:11;;;;;;;;;;;11.90;99.20;;;;;;4346277;33;19998;-79
2022/04/26 12:43:38;;;;;;;;;;;11.90;98.90;;;;;;4332279;33;44157;-80
2022/04/26 12:46:08;;;;;;;;;;;11.90;98.80;;;;;;4345099;33;44752;-80
2022/04/26 12:51:24;;;;;;;;;;;12.00;98.70;;;;;;4345322;33;43007;-80
2022/04/26 12:54:09;;;;;;;;;;;12.00;98.70;;;;;;4332670;33;44925;-80
2022/04/26 12:56:36;;;;;;;;;;;12.00;98.70;;;;;;4345125;33;44051;-80
2022/04/26 12:59:03;;;;;;;;;;;12.00;98.60;;;;;;4331995;33;43443;-80
2022/04/26 13:01:31;;;;;;;;;;;12.00;98.50;;;;;;4345030;33;42330;-80
2022/04/26 13:03:58;;;;;;;;;;;12.00;98.50;;;;;;4331713;33;42008;-80
2022/04/26 13:06:26;;;;;;;;;;;12.00;98.60;;;;;;4345416;33;40299;-80
2022/04/26 13:09:13;;;;;;;;;;;12.00;98.70;;;;;;4333732;33;43203;-80
2022/04/26 13:11:42;;;;;;;;;;;12.10;98.70;;;;;;4332745;33;20370;-80
2022/04/26 13:14:10;;;;;;;;;;;12.10;98.60;;;;;;4331635;33;43062;-80
2022/04/26 13:16:57;;;;;;;;;;;12.10;98.50;;;;;;4345262;33;45297;-80
2022/04/26 13:19:24;;;;;;;;;;;12.10;98.40;;;;;;4331568;33;43189;-80
2022/04/26 13:21:51;;;;;;;;;;;12.20;98.40;;;;;;4345033;33;43036;-80
2022/04/26 13:24:25;;;;;;;;;;;12.20;98.20;;;;;;4344896;33;44039;-80
2022/04/26 13:26:52;;;;;;;;;;;12.20;98.20;;;;;;4344892;33;44291;-80
2022/04/26 13:29:19;;;;;;;;;;;12.20;98.20;;;;;;4345115;33;43549;-80
2022/04/26 13:31:46;;;;;;;;;;;12.20;98.20;;;;;;4332736;33;44092;-80
2022/04/26 13:34:14;;;;;;;;;;;12.20;98.20;;;;;;4335038;33;45053;-79
2022/04/26 13:37:01;;;;;;;;;;;12.20;98.10;;;;;;4348292;33;42532;-80
2022/04/26 13:39:28;;;;;;;;;;;12.20;98.20;;;;;;4348266;33;43725;-80
2022/04/26 13:41:55;;;;;;;;;;;12.20;98.20;;;;;;4348796;33;20009;-79
2022/04/26 13:44:22;;;;;;;;;;;12.20;98.20;;;;;;4348075;33;44032;-80
2022/04/26 13:46:49;;;;;;;;;;;12.30;98.20;;;;;;4334511;33;43944;-80
2022/04/26 13:49:17;;;;;;;;;;;12.20;98.20;;;;;;4334515;33;43213;-80
2022/04/26 13:51:44;;;;;;;;;;;12.30;98.40;;;;;;4348184;33;44209;-80
2022/04/26 13:54:11;;;;;;;;;;;12.30;98.40;;;;;;4334898;33;44336;-80
2022/04/26 13:56:38;;;;;;;;;;;12.40;98.50;;;;;;4334817;33;44065;-80
2022/04/26 13:59:05;;;;;;;;;;;12.40;98.50;;;;;;4334248;33;43279;-80
2022/04/26 14:01:33;;;;;;;;;;;12.40;98.30;;;;;;4347352;33;44341;-80
2022/04/26 14:04:04;;;;;;;;;;;12.40;98.20;;;;;;4334911;33;43324;-80
2022/04/26 14:06:31;;;;;;;;;;;12.40;98.10;;;;;;4334266;33;44221;-80
2022/04/26 14:08:58;;;;;;;;;;;12.40;98.00;;;;;;4334551;33;43983;-80
2022/04/26 14:11:25;;;;;;;;;;;12.40;97.90;;;;;;4333978;33;45965;-80
2022/04/26 14:22:32;;;;;;;;;;;12.40;97.70;;;;;;4347312;33;43401;-80
2022/04/26 14:25:03;;;;;;;;;;;12.50;97.80;;;;;;4334364;33;43477;-80
2022/04/26 14:27:31;;;;;;;;;;;12.50;97.80;;;;;;4334568;33;42993;-81
2022/04/26 14:29:59;;;;;;;;;;;12.50;97.80;;;;;;4347510;33;45153;-80
2022/04/26 14:32:26;;;;;;;;;;;12.50;97.80;;;;;;4334052;33;44232;-80
2022/04/26 14:34:53;;;;;;;;;;;12.50;97.70;;;;;;4347149;33;43604;-80
2022/04/26 14:37:22;;;;;;;;;;;12.50;97.70;;;;;;4333915;33;44084;-80
2022/04/26 14:39:50;;;;;;;;;;;12.50;97.60;;;;;;4333893;33;45318;-80
2022/04/26 14:42:20;;;;;;;;;;;12.50;97.60;;;;;;4333389;33;42697;-80
2022/04/26 14:44:48;;;;;;;;;;;12.60;97.60;;;;;;4334061;33;44075;-80
2022/04/26 14:47:15;;;;;;;;;;;12.50;97.50;;;;;;4346769;33;44216;-80
2022/04/26 14:49:42;;;;;;;;;;;12.50;97.40;;;;;;4347247;33;43359;-81
2022/04/26 14:52:11;;;;;;;;;;;12.50;97.40;;;;;;4333610;33;43799;-81
2022/04/26 14:54:57;;;;;;;;;;;12.60;97.40;;;;;;4347118;33;43805;-81
2022/04/26 14:57:24;;;;;;;;;;;12.50;97.40;;;;;;4346736;33;43494;-81
2022/04/26 14:59:51;;;;;;;;;;;12.50;97.30;;;;;;4333508;33;43367;-81
2022/04/26 15:02:19;;;;;;;;;;;12.60;97.30;;;;;;4346622;33;44115;-81
2022/04/26 15:04:47;;;;;;;;;;;12.60;97.30;;;;;;4346584;33;43971;-81
2022/04/26 15:07:17;;;;;;;;;;;12.60;97.30;;;;;;4334326;33;43357;-80
2022/04/26 15:09:45;;;;;;;;;;;12.60;97.20;;;;;;4346882;33;42792;-81
2022/04/26 15:17:49;;;;;;;;;;;12.60;97.10;;;;;;4346509;33;44029;-81
2022/04/26 15:20:18;;;;;;;;;;;12.60;96.90;;;;;;4333470;33;42822;-81
2022/04/26 15:22:46;;;;;;;;;;;12.60;97.00;;;;;;4332954;33;44175;-81
2022/04/26 15:25:13;;;;;;;;;;;12.60;97.00;;;;;;4346318;33;44041;-81
2022/04/26 15:27:41;;;;;;;;;;;12.70;96.90;;;;;;4332987;33;44099;-81
2022/04/26 15:30:10;;;;;;;;;;;12.70;96.80;;;;;;4346466;33;44188;-81
2022/04/26 15:32:37;;;;;;;;;;;12.70;96.80;;;;;;4333454;33;43899;-81
2022/04/26 15:35:04;;;;;;;;;;;12.70;96.70;;;;;;4346247;33;44226;-81
2022/04/26 15:37:34;;;;;;;;;;;12.70;96.80;;;;;;4346624;33;45840;-81
2022/04/26 15:40:01;;;;;;;;;;;12.80;96.60;;;;;;4346144;33;44259;-81
2022/04/26 15:42:31;;;;;;;;;;;12.70;96.60;;;;;;4332975;33;45964;-81
2022/04/26 15:44:59;;;;;;;;;;;12.70;96.80;;;;;;4332673;33;44200;-80
2022/04/26 15:47:26;;;;;;;;;;;12.70;96.70;;;;;;4346515;33;43250;-81
2022/04/26 15:49:53;;;;;;;;;;;12.70;96.70;;;;;;4333409;33;43306;-81
2022/04/26 15:52:20;;;;;;;;;;;12.80;96.80;;;;;;4333052;33;44508;-81
2022/04/26 15:54:47;;;;;;;;;;;12.70;96.70;;;;;;4345380;33;44132;-80
2022/04/26 15:57:14;;;;;;;;;;;12.80;96.50;;;;;;4332903;33;43989;-80
2022/04/26 15:59:41;;;;;;;;;;;12.70;96.70;;;;;;4333024;33;45646;-80
2022/04/26 16:02:08;;;;;;;;;;;12.70;96.50;;;;;;4345944;33;42286;-81
2022/04/26 16:04:36;;;;;;;;;;;12.70;96.70;;;;;;4346000;33;45786;-81
2022/04/26 16:07:03;;;;;;;;;;;12.80;96.80;;;;;;4345722;33;44007;-81
2022/04/26 16:20:37;;;;;;;;;;;12.80;96.50;;;;;;4345990;33;42632;-81
2022/04/26 16:23:05;;;;;;;;;;;12.80;96.60;;;;;;4332544;33;44421;-80
2022/04/26 16:25:32;;;;;;;;;;;12.80;96.50;;;;;;4345979;33;43315;-81
2022/04/26 16:28:03;;;;;;;;;;;12.80;96.50;;;;;;4345470;33;42304;-81
2022/04/26 16:30:31;;;;;;;;;;;12.90;96.40;;;;;;4332824;33;44259;-81
2022/04/26 16:32:58;;;;;;;;;;;12.80;96.30;;;;;;4345243;33;45537;-81
2022/04/26 16:35:25;;;;;;;;;;;12.80;96.30;;;;;;4345758;33;43928;-81
2022/04/26 16:37:52;;;;;;;;;;;12.90;96.40;;;;;;4345496;33;43969;-81
2022/04/26 16:40:19;;;;;;;;;;;12.80;96.10;;;;;;4331997;33;43724;-81
2022/04/26 16:42:47;;;;;;;;;;;12.90;96.40;;;;;;4345171;33;44795;-81
2022/04/26 16:45:14;;;;;;;;;;;12.90;96.30;;;;;;4333237;33;20035;-81
2022/04/26 16:47:41;;;;;;;;;;;12.90;96.20;;;;;;4345734;33;44139;-81
2022/04/26 16:50:09;;;;;;;;;;;12.90;96.40;;;;;;4332413;33;43209;-81
2022/04/26 16:52:36;;;;;;;;;;;12.90;96.30;;;;;;4345421;33;44425;-81
2022/04/26 16:55:04;;;;;;;;;;;12.90;96.10;;;;;;4332344;33;44068;-81
2022/04/26 16:57:31;;;;;;;;;;;12.90;96.00;;;;;;4331984;33;43474;-81
2022/04/26 16:59:59;;;;;;;;;;;12.90;95.90;;;;;;4345717;33;43485;-81
2022/04/26 17:02:26;;;;;;;;;;;12.90;95.90;;;;;;4345057;33;42761;-81
2022/04/26 17:04:53;;;;;;;;;;;12.90;95.90;;;;;;4331893;33;43309;-81
2022/04/26 17:07:21;;;;;;;;;;;12.90;96.00;;;;;;4345392;33;43300;-81
2022/04/26 17:09:48;;;;;;;;;;;12.90;95.30;;;;;;4345085;33;43246;-81
2022/04/26 17:12:15;;;;;;;;;;;12.90;95.90;;;;;;4345485;33;44242;-80
2022/04/26 17:14:42;;;;;;;;;;;12.90;95.80;;;;;;4331861;33;46038;-81
2022/04/26 17:17:12;;;;;;;;;;;12.90;95.30;;;;;;4331889;33;44232;-81
2022/04/26 17:19:39;;;;;;;;;;;12.90;95.50;;;;;;4345254;33;43557;-81
2022/04/26 17:22:06;;;;;;;;;;;13.00;95.80;;;;;;4331540;33;42650;-81
2022/04/26 17:27:19;;;;;;;;;;;13.00;95.70;;;;;;4345299;33;45851;-81
2022/04/26 17:29:46;;;;;;;;;;;13.00;95.70;;;;;;4345257;33;43849;-81
2022/04/26 17:32:16;;;;;;;;;;;13.00;95.90;;;;;;4344708;33;42714;-81
2022/04/26 17:34:43;;;;;;;;;;;13.00;95.70;;;;;;4331534;33;42322;-81
2022/04/26 17:37:13;;;;;;;;;;;13.00;95.80;;;;;;4331686;33;42281;-81
2022/04/26 17:39:40;;;;;;;;;;;13.00;96.00;;;;;;4331365;33;45748;-81
2022/04/26 17:42:08;;;;;;;;;;;13.00;95.80;;;;;;4331785;33;43380;-81
2022/04/26 17:44:35;;;;;;;;;;;13.00;95.90;;;;;;4344507;33;44177;-81
2022/04/26 17:47:04;;;;;;;;;;;13.00;95.70;;;;;;4344661;33;42994;-81
2022/04/26 17:49:51;;;;;;;;;;;13.00;95.90;;;;;;4345203;33;45492;-82
2022/04/26 17:52:18;;;;;;;;;;;13.00;95.60;;;;;;4344877;33;43898;-82
2022/04/26 17:57:31;;;;;;;;;;;13.00;95.80;;;;;;4344600;33;42755;-81
2022/04/26 17:59:59;;;;;;;;;;;13.00;95.60;;;;;;4331415;33;43892;-81
2022/04/26 18:02:26;;;;;;;;;;;13.00;95.80;;;;;;4328782;33;44662;-81
2022/04/26 18:04:53;;;;;;;;;;;13.00;95.70;;;;;;4330198;33;43421;-81
2022/04/26 18:07:20;;;;;;;;;;;13.00;95.70;;;;;;4330161;33;43252;-81
2022/04/26 18:09:48;;;;;;;;;;;13.00;95.50;;;;;;4329097;33;43420;-81
2022/04/26 18:12:15;;;;;;;;;;;13.00;95.30;;;;;;4329852;33;42899;-81
2022/04/26 18:14:42;;;;;;;;;;;13.00;95.40;;;;;;4328598;33;44133;-80
2022/04/26 18:17:09;;;;;;;;;;;13.00;95.40;;;;;;4329201;33;44895;-81
2022/04/26 18:19:36;;;;;;;;;;;13.00;95.40;;;;;;4332815;33;44172;-81
2022/04/26 18:22:04;;;;;;;;;;;13.00;95.50;;;;;;4331378;33;43803;-81
2022/04/26 18:24:31;;;;;;;;;;;13.00;95.20;;;;;;4332736;33;42734;-81
2022/04/26 18:26:59;;;;;;;;;;;13.00;95.40;;;;;;4331446;33;44589;-81
2022/04/26 18:29:26;;;;;;;;;;;13.00;95.30;;;;;;4332365;33;43261;-81
2022/04/26 18:31:53;;;;;;;;;;;13.00;95.30;;;;;;4332561;33;44164;-81
2022/04/26 18:34:21;;;;;;;;;;;13.00;95.20;;;;;;4331500;33;44137;-81
2022/04/26 18:36:49;;;;;;;;;;;13.00;95.10;;;;;;4331826;33;41891;-81
2022/04/26 18:39:16;;;;;;;;;;;13.00;94.90;;;;;;4332692;33;44445;-81
2022/04/26 18:41:44;;;;;;;;;;;13.00;95.00;;;;;;4331643;33;43975;-82
2022/04/26 18:44:11;;;;;;;;;;;13.00;95.10;;;;;;4332271;33;44623;-82
2022/04/26 18:46:38;;;;;;;;;;;13.00;95.00;;;;;;4332788;33;43509;-81
2022/04/26 18:49:07;;;;;;;;;;;12.90;94.80;;;;;;4331037;33;44077;-81
2022/04/26 18:51:35;;;;;;;;;;;12.90;94.60;;;;;;4331367;33;43084;-82
2022/04/26 18:54:02;;;;;;;;;;;12.90;94.50;;;;;;4332105;33;42735;-82
2022/04/26 18:56:29;;;;;;;;;;;12.90;95.10;;;;;;4331881;33;46262;-82